createdAt,value
2022-12-09T00:00:25.285Z,15.95
2022-12-09T00:03:30.796Z,13.90
2022-12-09T00:06:34.373Z,16.42
2022-12-09T00:09:37.225Z,13.30
2022-12-09T00:12:39.940Z,14.38
2022-12-09T00:15:43.398Z,14.02
2022-12-09T00:18:47.529Z,15.63
2022-12-09T00:21:50.330Z,14.27
2022-12-09T00:24:53.152Z,23.55
2022-12-09T00:27:56.161Z,13.15
2022-12-09T00:31:00.154Z,11.75
2022-12-09T00:34:05.494Z,11.75
2022-12-09T00:37:08.178Z,12.57
2022-12-09T00:40:11.958Z,15.55
2022-12-09T00:43:14.908Z,10.35
2022-12-09T00:46:17.760Z,9.23
2022-12-09T00:49:22.835Z,10.65
2022-12-09T00:52:25.823Z,9.98
2022-12-09T00:55:28.992Z,8.98
2022-12-09T00:58:31.739Z,7.45
2022-12-09T01:01:34.565Z,9.60
2022-12-09T01:04:39.222Z,6.95
2022-12-09T01:07:42.328Z,6.03
2022-12-09T01:10:45.920Z,5.75
2022-12-09T01:13:49.378Z,7.45
2022-12-09T01:16:52.102Z,6.82
2022-12-09T01:19:56.254Z,4.22
2022-12-09T01:22:59.014Z,6.45
2022-12-09T01:26:03.693Z,6.43
2022-12-09T01:29:06.792Z,4.20
2022-12-09T01:32:09.623Z,5.80
2022-12-09T01:35:13.923Z,5.75
2022-12-09T01:38:16.534Z,6.07
2022-12-09T01:41:20.691Z,6.03
2022-12-09T01:44:24.326Z,6.10
2022-12-09T01:47:27.270Z,6.22
2022-12-09T01:50:32.573Z,12.13
2022-12-09T01:53:36.920Z,7.13
2022-12-09T01:56:40.927Z,7.97
2022-12-09T01:59:46.172Z,7.82
2022-12-09T02:02:50.010Z,8.40
2022-12-09T02:05:57.304Z,6.78
2022-12-09T02:09:00.279Z,7.10
2022-12-09T02:12:11.405Z,9.32
2022-12-09T02:15:16.197Z,7.43
2022-12-09T02:18:22.494Z,8.50
2022-12-09T02:21:27.912Z,9.68
2022-12-09T02:24:33.019Z,10.95
2022-12-09T02:27:38.452Z,10.20
2022-12-09T02:30:46.024Z,10.48
2022-12-09T02:34:12.914Z,12.90
2022-12-09T02:37:19.609Z,10.63
2022-12-09T02:40:30.203Z,11.60
2022-12-09T02:43:36.781Z,11.25
2022-12-09T02:46:42.161Z,10.65
2022-12-09T02:49:47.876Z,12.00
2022-12-09T02:52:52.760Z,12.80
2022-12-09T02:55:56.702Z,9.68
2022-12-09T02:58:59.702Z,11.38
2022-12-09T03:02:13.503Z,13.50
2022-12-09T03:05:20.841Z,13.13
2022-12-09T03:08:30.766Z,17.70
2022-12-09T03:11:33.725Z,12.00
2022-12-09T03:14:38.418Z,10.95
2022-12-09T03:17:42.563Z,9.55
2022-12-09T03:20:46.418Z,13.93
2022-12-09T03:23:56.327Z,10.10
2022-12-09T03:27:00.530Z,11.43
2022-12-09T03:30:05.547Z,16.50
2022-12-09T03:33:10.403Z,18.50
2022-12-09T03:36:14.967Z,15.30
2022-12-09T03:39:22.477Z,14.63
2022-12-09T03:42:27.852Z,12.38
2022-12-09T03:45:30.913Z,17.30
2022-12-09T03:48:33.995Z,13.45
2022-12-09T03:51:38.343Z,12.25
2022-12-09T03:54:44.120Z,14.57
2022-12-09T03:57:49.005Z,18.08
2022-12-09T04:00:51.997Z,15.98
2022-12-09T04:03:56.338Z,16.48
2022-12-09T04:06:59.367Z,15.95
2022-12-09T04:10:03.749Z,19.67
2022-12-09T04:13:06.826Z,22.70
2022-12-09T04:16:10.153Z,15.23
2022-12-09T04:19:13.206Z,18.48
2022-12-09T04:22:15.854Z,18.67
2022-12-09T04:25:19.862Z,16.73
2022-12-09T04:28:25.350Z,18.00
2022-12-09T04:31:28.207Z,17.67
2022-12-09T04:34:30.944Z,17.50
2022-12-09T04:37:33.812Z,19.13
2022-12-09T04:40:38.566Z,16.77
2022-12-09T04:43:41.673Z,21.77
2022-12-09T04:46:45.083Z,21.98
2022-12-09T04:49:47.983Z,21.50
2022-12-09T04:52:50.877Z,22.85
2022-12-09T04:56:01.249Z,18.30
2022-12-09T04:59:06.283Z,20.80
2022-12-09T05:02:09.243Z,18.10
2022-12-09T05:05:13.137Z,21.35
2022-12-09T05:08:16.607Z,18.63
2022-12-09T05:11:23.677Z,21.40
2022-12-09T05:14:26.952Z,16.40
2022-12-09T05:17:29.839Z,22.15
2022-12-09T05:20:32.729Z,17.23
2022-12-09T05:23:36.288Z,21.25
2022-12-09T05:26:40.562Z,15.00
2022-12-09T05:29:43.243Z,15.20
2022-12-09T05:32:46.170Z,12.70
2022-12-09T05:35:52.676Z,17.40
2022-12-09T05:38:56.745Z,24.25
2022-12-09T05:42:00.705Z,15.82
2022-12-09T05:45:03.683Z,17.67
2022-12-09T05:48:06.828Z,15.02
2022-12-09T05:51:11.682Z,16.25
2022-12-09T05:54:14.565Z,14.98
2022-12-09T05:57:18.623Z,12.60
2022-12-09T06:00:22.665Z,28.52
2022-12-09T06:03:25.757Z,20.77
2022-12-09T06:06:30.353Z,15.88
2022-12-09T06:09:34.859Z,19.45
2022-12-09T06:12:39.334Z,23.20
2022-12-09T06:15:42.414Z,24.20
2022-12-09T06:18:45.369Z,20.13
2022-12-09T06:21:48.945Z,22.38
2022-12-09T06:24:56.867Z,21.90
2022-12-09T06:28:01.468Z,15.55
2022-12-09T06:31:04.375Z,17.80
2022-12-09T06:34:07.792Z,15.57
2022-12-09T06:37:11.019Z,17.27
2022-12-09T06:40:13.856Z,17.40
2022-12-09T06:43:18.019Z,18.17
2022-12-09T06:46:23.333Z,20.75
2022-12-09T06:49:26.990Z,21.67
2022-12-09T06:52:30.005Z,18.58
2022-12-09T06:55:33.037Z,19.98
2022-12-09T06:58:37.976Z,16.67
2022-12-09T07:01:41.085Z,24.35
2022-12-09T07:04:44.595Z,17.75
2022-12-09T07:07:51.434Z,21.65
2022-12-09T07:10:56.988Z,21.17
2022-12-09T07:14:02.073Z,22.55
2022-12-09T07:17:05.511Z,19.73
2022-12-09T07:20:09.421Z,20.65
2022-12-09T07:23:13.755Z,21.33
2022-12-09T07:26:17.076Z,21.70
2022-12-09T07:29:21.598Z,17.10
2022-12-09T07:32:24.507Z,16.95
2022-12-09T07:35:27.841Z,16.92
2022-12-09T07:38:31.584Z,21.08
2022-12-09T07:41:34.538Z,18.58
2022-12-09T07:44:39.923Z,20.25
2022-12-09T07:47:43.098Z,16.65
2022-12-09T07:50:46.121Z,15.98
2022-12-09T07:53:48.937Z,15.88
2022-12-09T07:56:51.873Z,17.73
2022-12-09T07:59:56.902Z,16.98
2022-12-09T08:03:00.103Z,15.02
2022-12-09T08:06:03.580Z,15.85
2022-12-09T08:09:08.209Z,15.80
2022-12-09T08:12:12.132Z,17.23
2022-12-09T08:15:19.506Z,15.50
2022-12-09T08:18:22.340Z,18.17
2022-12-09T08:21:25.735Z,15.63
2022-12-09T08:24:28.802Z,16.23
2022-12-09T08:27:31.802Z,12.52
2022-12-09T08:30:37.055Z,22.05
2022-12-09T08:33:40.698Z,15.85
2022-12-09T08:36:43.609Z,12.65
2022-12-09T08:39:46.585Z,14.10
2022-12-09T08:42:49.556Z,19.25
2022-12-09T08:45:53.972Z,13.43
2022-12-09T08:48:56.887Z,14.95
2022-12-09T08:52:00.491Z,17.70
2022-12-09T08:55:03.656Z,19.70
2022-12-09T08:58:06.531Z,21.92
2022-12-09T09:01:15.633Z,16.33
2022-12-09T09:04:20.388Z,13.95
2022-12-09T09:07:23.793Z,13.57
2022-12-09T09:10:27.001Z,14.80
2022-12-09T09:13:30.726Z,18.50
2022-12-09T09:16:35.747Z,19.23
2022-12-09T09:19:39.141Z,19.50
2022-12-09T09:22:41.809Z,13.90
2022-12-09T09:25:44.906Z,16.55
2022-12-09T09:28:48.236Z,14.02
2022-12-09T09:31:54.998Z,14.40
2022-12-09T09:34:58.683Z,13.43
2022-12-09T09:38:01.948Z,11.02
2022-12-09T09:41:08.868Z,13.65
2022-12-09T09:44:16.718Z,12.93
2022-12-09T09:47:38.935Z,16.50
2022-12-09T09:50:45.560Z,18.80
2022-12-09T09:53:51.217Z,12.40
2022-12-09T09:57:01.565Z,16.55
2022-12-09T10:00:10.087Z,18.27
2022-12-09T10:03:24.463Z,16.27
2022-12-09T10:06:33.463Z,14.68
2022-12-09T10:09:44.251Z,11.20
2022-12-09T10:13:05.864Z,12.27
2022-12-09T10:16:25.356Z,13.02
2022-12-09T10:19:33.763Z,13.27
2022-12-09T10:22:42.261Z,14.93
2022-12-09T10:25:49.981Z,12.63
2022-12-09T10:29:03.817Z,13.27
2022-12-09T10:32:16.225Z,12.95
2022-12-09T10:35:26.100Z,11.98
2022-12-09T10:38:34.934Z,14.25
2022-12-09T10:41:59.826Z,13.48
2022-12-09T10:45:08.596Z,13.35
2022-12-09T10:48:22.555Z,15.98
2022-12-09T10:51:32.075Z,11.80
2022-12-09T10:54:40.287Z,14.23
2022-12-09T10:57:50.655Z,12.45
2022-12-09T11:01:05.288Z,14.63
2022-12-09T11:04:14.243Z,17.55
2022-12-09T11:07:20.929Z,15.60
2022-12-09T11:10:26.820Z,12.88
2022-12-09T11:13:37.179Z,16.65
2022-12-09T11:16:55.392Z,12.10
2022-12-09T11:20:18.376Z,12.95
2022-12-09T11:23:30.116Z,15.02
2022-12-09T11:26:36.560Z,14.90
2022-12-09T11:29:39.700Z,11.27
2022-12-09T11:33:03.621Z,13.98
2022-12-09T11:36:11.587Z,19.48
2022-12-09T11:39:27.462Z,15.98
2022-12-09T11:42:45.837Z,16.02
2022-12-09T11:45:49.886Z,14.02
2022-12-09T11:48:59.749Z,17.77
2022-12-09T11:52:05.473Z,18.58
2022-12-09T11:55:25.536Z,18.58
2022-12-09T11:58:30.366Z,15.35
2022-12-09T12:01:49.176Z,18.83
2022-12-09T12:04:56.523Z,16.30
2022-12-09T12:08:08.971Z,19.52
2022-12-09T12:11:16.064Z,19.75
2022-12-09T12:14:23.703Z,17.02
2022-12-09T12:17:28.838Z,19.52
2022-12-09T12:20:40.708Z,13.52
2022-12-09T12:23:49.273Z,17.65
2022-12-09T12:26:57.385Z,17.08
2022-12-09T12:30:02.247Z,17.65
2022-12-09T12:36:36.565Z,22.70
2022-12-09T12:39:45.304Z,18.67
2022-12-09T12:43:12.433Z,23.05
2022-12-09T12:46:21.878Z,16.35
2022-12-09T12:49:45.907Z,17.17
2022-12-09T12:52:56.862Z,22.15
2022-12-09T12:56:01.221Z,22.13
2022-12-09T12:59:08.471Z,18.63
2022-12-09T13:02:16.842Z,18.38
2022-12-09T13:05:22.186Z,19.02
2022-12-09T13:08:27.888Z,16.90
2022-12-09T13:11:33.921Z,14.43
2022-12-09T13:14:40.306Z,18.00
2022-12-09T13:17:44.355Z,19.42
2022-12-09T13:20:48.358Z,20.33
2022-12-09T13:23:57.609Z,16.38
2022-12-09T13:27:01.638Z,16.55
2022-12-09T13:30:07.886Z,18.27
2022-12-09T13:33:19.249Z,22.30
2022-12-09T13:36:23.360Z,14.23
2022-12-09T13:39:44.604Z,16.98
2022-12-09T13:42:54.218Z,15.98
2022-12-09T13:45:59.643Z,10.38
2022-12-09T13:49:09.408Z,14.77
2022-12-09T13:52:12.041Z,12.52
2022-12-09T13:55:35.828Z,16.20
2022-12-09T13:58:49.859Z,12.35
2022-12-09T14:01:55.796Z,12.55
2022-12-09T14:05:02.578Z,13.18
2022-12-09T14:08:08.023Z,10.68
2022-12-09T14:11:34.501Z,10.00
2022-12-09T14:14:58.387Z,10.50
2022-12-09T14:18:04.436Z,12.48
2022-12-09T14:21:24.370Z,11.05
2022-12-09T14:24:35.257Z,14.95
2022-12-09T14:27:37.893Z,10.85
2022-12-09T14:30:48.381Z,12.70
2022-12-09T14:33:52.524Z,14.82
2022-12-09T14:36:57.573Z,12.68
2022-12-09T14:40:04.274Z,13.55
2022-12-09T14:43:20.784Z,16.20
2022-12-09T14:46:25.568Z,13.05
2022-12-09T14:49:30.383Z,14.73
2022-12-09T14:52:34.587Z,10.57
2022-12-09T14:55:39.500Z,12.60
2022-12-09T14:58:46.485Z,15.93
2022-12-09T15:01:50.294Z,15.25
2022-12-09T15:04:55.601Z,12.38
2022-12-09T15:07:58.833Z,20.17
2022-12-09T15:11:06.861Z,14.60
2022-12-09T15:14:28.559Z,16.30
2022-12-09T15:17:34.799Z,13.32
2022-12-09T15:20:40.591Z,15.50
2022-12-09T15:23:45.156Z,11.48
2022-12-09T15:26:57.252Z,10.98
2022-12-09T15:30:00.874Z,7.47
2022-12-09T15:33:05.506Z,12.50
2022-12-09T15:36:17.934Z,9.55
2022-12-09T15:39:26.039Z,8.02
2022-12-09T15:43:12.258Z,9.48
2022-12-09T15:46:50.425Z,11.93
2022-12-09T15:50:00.847Z,15.13
2022-12-09T15:53:33.787Z,15.40
2022-12-09T15:57:11.950Z,8.25
2022-12-09T16:00:48.736Z,12.93
2022-12-09T16:04:35.105Z,8.32
2022-12-09T16:07:56.566Z,11.20
2022-12-09T16:11:00.942Z,11.95
2022-12-09T16:14:25.078Z,9.05
2022-12-09T16:17:29.806Z,9.52
2022-12-09T16:20:35.169Z,10.00
2022-12-09T16:23:43.198Z,14.20
2022-12-09T16:26:51.689Z,11.85
2022-12-09T16:30:03.300Z,14.13
2022-12-09T16:33:24.609Z,14.55
2022-12-09T16:36:29.335Z,13.57
2022-12-09T16:39:59.484Z,15.35
2022-12-09T16:43:18.999Z,16.42
2022-12-09T16:46:39.020Z,16.25
2022-12-09T16:49:55.325Z,16.58
2022-12-09T16:53:01.906Z,22.55
2022-12-09T16:56:34.011Z,29.38
2022-12-09T17:00:24.301Z,44.45
2022-12-09T17:03:55.071Z,20.10
2022-12-09T17:07:17.075Z,14.57
2022-12-09T17:10:38.267Z,16.13
2022-12-09T17:14:08.838Z,14.93
2022-12-09T17:17:34.282Z,16.23
2022-12-09T17:20:53.231Z,27.88
2022-12-09T17:24:18.265Z,31.13
2022-12-09T17:28:03.416Z,21.65
2022-12-09T17:31:30.112Z,15.93
2022-12-09T17:34:44.402Z,15.38
2022-12-09T17:37:53.542Z,16.15
2022-12-09T17:41:38.102Z,17.25
2022-12-09T17:45:17.999Z,12.07
2022-12-09T17:48:50.707Z,16.30
2022-12-09T17:51:54.229Z,16.02
2022-12-09T17:55:10.852Z,17.15
2022-12-09T17:58:53.076Z,18.13
2022-12-09T18:02:03.571Z,18.35
2022-12-09T18:05:15.802Z,23.40
2022-12-09T18:08:40.699Z,18.35
2022-12-09T18:11:44.140Z,14.10
2022-12-09T18:14:49.772Z,14.23
2022-12-09T18:17:54.967Z,17.08
2022-12-09T18:21:00.504Z,20.20
2022-12-09T18:24:32.251Z,20.35
2022-12-09T18:31:40.832Z,15.18
2022-12-09T18:34:46.230Z,10.40
2022-12-09T18:37:49.278Z,20.38
2022-12-09T18:41:21.877Z,20.45
2022-12-09T18:44:25.545Z,20.25
2022-12-09T18:47:28.463Z,17.63
2022-12-09T18:50:57.936Z,18.52
2022-12-09T18:54:05.817Z,17.90
2022-12-09T18:57:58.150Z,19.30
2022-12-09T19:01:13.048Z,23.95
2022-12-09T19:04:16.662Z,26.70
2022-12-09T19:07:47.933Z,15.60
2022-12-09T19:11:20.165Z,18.35
2022-12-09T19:14:48.401Z,22.42
2022-12-09T19:18:07.452Z,17.65
2022-12-09T19:21:33.591Z,20.25
2022-12-09T19:24:54.224Z,21.23
2022-12-09T19:28:04.709Z,20.23
2022-12-09T19:31:31.117Z,13.82
2022-12-09T19:35:00.839Z,17.98
2022-12-09T19:38:05.233Z,18.35
2022-12-09T19:41:09.566Z,15.85
2022-12-09T19:45:01.307Z,17.45
2022-12-09T19:51:46.938Z,16.40
2022-12-09T19:54:50.511Z,17.45
2022-12-09T19:58:23.076Z,15.48
2022-12-09T20:01:34.416Z,17.30
2022-12-09T20:04:50.043Z,19.15
2022-12-09T20:07:55.991Z,18.42
2022-12-09T20:10:58.911Z,27.67
2022-12-09T20:14:31.714Z,15.30
2022-12-09T20:18:13.403Z,21.05
2022-12-09T20:21:17.563Z,18.20
2022-12-09T20:24:21.713Z,17.70
2022-12-09T20:27:45.604Z,18.73
2022-12-09T20:30:48.529Z,22.27
2022-12-09T20:33:58.533Z,18.00
2022-12-09T20:37:01.228Z,16.55
2022-12-09T20:40:09.747Z,21.27
2022-12-09T20:43:19.771Z,16.35
2022-12-09T20:46:26.014Z,19.33
2022-12-09T20:50:20.338Z,18.08
2022-12-09T20:58:07.299Z,20.38
2022-12-09T21:01:17.514Z,14.85
2022-12-09T21:04:32.187Z,19.13
2022-12-09T21:08:04.184Z,22.17
2022-12-09T21:11:50.148Z,16.38
2022-12-09T21:19:30.482Z,19.25
2022-12-09T21:22:33.972Z,17.70
2022-12-09T21:25:36.406Z,18.23
2022-12-09T21:28:39.466Z,16.27
2022-12-09T21:31:43.989Z,20.80
2022-12-09T21:34:48.034Z,22.17
2022-12-09T21:37:55.855Z,16.92
2022-12-09T21:41:01.629Z,15.38
2022-12-09T21:44:04.641Z,20.35
2022-12-09T21:47:07.128Z,17.85
2022-12-09T21:50:24.115Z,21.77
2022-12-09T21:53:28.335Z,20.52
2022-12-09T21:56:36.795Z,18.13
2022-12-09T21:59:39.491Z,21.83
2022-12-09T22:02:44.092Z,16.40
2022-12-09T22:05:48.052Z,22.13
2022-12-09T22:08:50.786Z,14.32
2022-12-09T22:11:53.530Z,24.30
2022-12-09T22:14:58.693Z,18.77
2022-12-09T22:18:01.407Z,19.27
2022-12-09T22:21:36.077Z,19.45
2022-12-09T22:24:30.406Z,21.35
2022-12-09T22:27:33.016Z,20.63
2022-12-09T22:30:36.494Z,18.67
2022-12-09T22:33:39.297Z,18.58
2022-12-09T22:36:43.609Z,19.98
2022-12-09T22:39:48.130Z,18.48
2022-12-09T22:42:51.288Z,22.30
2022-12-09T22:45:53.870Z,27.88
2022-12-09T22:48:56.698Z,17.73
2022-12-09T22:52:16.436Z,20.65
2022-12-09T22:55:23.442Z,19.85
2022-12-09T22:58:25.894Z,23.52
2022-12-09T23:01:30.681Z,23.02
2022-12-09T23:04:35.035Z,20.90
2022-12-09T23:07:38.937Z,15.95
2022-12-09T23:10:42.001Z,20.67
2022-12-09T23:13:51.049Z,20.40
2022-12-09T23:16:53.726Z,21.50
2022-12-09T23:19:56.308Z,18.13
2022-12-09T23:23:00.323Z,20.00
2022-12-09T23:26:04.846Z,21.35
2022-12-09T23:29:21.242Z,16.27
2022-12-09T23:32:38.592Z,22.58
2022-12-09T23:35:57.712Z,17.52
2022-12-09T23:39:02.466Z,17.25
2022-12-09T23:42:04.984Z,21.38
2022-12-09T23:45:09.738Z,19.55
2022-12-09T23:48:14.338Z,16.00
2022-12-09T23:51:27.233Z,19.92
2022-12-09T23:54:32.256Z,21.48
2022-12-09T23:57:35.034Z,19.35
